Flinterbrise — PHCA — position and weather

sailwx.info

Track history (hours):
 
Tides and Currents Weather Stations Pressure Air Temp Water Temp Dewpoint Dewpoint Depression Visibility Wind Speed Wind Dir Waves Ship Positions

Flinterbrise

Last reported at 2014-Dec-21 01:33 UTC. Time now 2014-Dec-21 01:55 UTC.
Position N 53°54' E 011°28'.

Length 83 m; draft 3.2 m.

Type: Ship. MMSI: 246044000.

Date/timePositionNaut miles runAvg speedWind from/ knotsBaromVisibWave heightAir tempDewpointWater temp
2014-Dec-21 01:33N 53°54' E 011°28'0 0.0
2014-Dec-21 00:33N 53°54' E 011°28'0 0.0
2014-Dec-20 23:33N 53°54' E 011°28'0 0.0
2014-Dec-20 22:33N 53°54' E 011°28'0 0.0
2014-Dec-20 21:33N 53°54' E 011°28'0 0.0
2014-Dec-20 20:33N 53°54' E 011°28'0 0.0
2014-Dec-20 19:33N 53°54' E 011°28'0 0.0
2014-Dec-20 18:33N 53°54' E 011°28'0 0.0
2014-Dec-20 17:33N 53°54' E 011°28'0 0.0
2014-Dec-20 16:33N 53°54' E 011°28'0 0.0
2014-Dec-20 15:33N 53°54' E 011°28'0 0.0
2014-Dec-20 14:33N 53°54' E 011°28'0 0.0
2014-Dec-20 13:33N 53°54' E 011°28'0 0.0
2014-Dec-20 12:33N 53°54' E 011°28'0 0.0
2014-Dec-20 11:33N 53°54' E 011°28'0 0.0
2014-Dec-20 10:33N 53°54' E 011°28'0 0.0
2014-Dec-20 09:33N 53°54' E 011°28'0 0.0
2014-Dec-20 08:27N 53°54' E 011°28'0 0.0
2014-Dec-20 07:33N 53°54' E 011°28'0 0.0
2014-Dec-20 06:33N 53°54' E 011°28'0 0.0
2014-Dec-20 05:33N 53°54' E 011°28'0 0.0
2014-Dec-20 04:33N 53°54' E 011°28'0 0.0
2014-Dec-20 03:33N 53°54' E 011°28'0 0.0
2014-Dec-20 02:33N 53°54' E 011°28'0 0.0
2014-Dec-20 01:33N 53°54' E 011°28'0 0.0
2014-Dec-20 00:33N 53°54' E 011°28'0 0.0
2014-Dec-19 23:33N 53°54' E 011°28'0 0.0
2014-Dec-19 22:33N 53°54' E 011°28'0 0.0
2014-Dec-19 21:33N 53°54' E 011°28'0 0.0
2014-Dec-19 20:33N 53°54' E 011°28'0 0.0
2014-Dec-19 19:33N 53°54' E 011°28'0 0.0
2014-Dec-19 18:33N 53°54' E 011°28'0 0.0
2014-Dec-19 17:33N 53°54' E 011°28'0 0.0
2014-Dec-19 16:33N 53°54' E 011°28'0 0.0
2014-Dec-19 15:33N 53°54' E 011°28'0 0.0
2014-Dec-19 14:33N 53°54' E 011°28'6 6.4
2014-Dec-19 13:33N 53°59' E 011°20'10 9.7
2014-Dec-19 12:33N 54°07' E 011°28'1111.2
2014-Dec-19 11:33N 54°15' E 011°41'1111.5
2014-Dec-19 10:33N 54°24' E 011°54'1110.7
2014-Dec-19 09:33N 54°29' E 012°10'6510.8
2014-Dec-19 03:29N 55°01' E 013°49'1010.4
2014-Dec-19 02:33N 55°05' E 014°05'1010.0
2014-Dec-19 01:33N 55°13' E 014°16'1010.3
2014-Dec-19 00:33N 55°21' E 014°27'9 9.4
2014-Dec-18 23:33N 55°28' E 014°38'9 9.5
2014-Dec-18 22:34N 55°32' E 014°52'1010.1
2014-Dec-18 21:31N 55°38' E 015°09'187 8.9
2014-Dec-18 00:24N 58°37' E 016°51'1112.6
2014-Dec-17 23:34N 58°39' E 016°31'11 3.3
2014-Dec-17 20:21N 58°36' E 016°12'0 0.0
2014-Dec-17 19:09N 58°36' E 016°12'0 0.0
2014-Dec-17 17:28N 58°36' E 016°12'0 0.0
2014-Dec-17 15:06N 58°36' E 016°12'0 0.0
2014-Dec-17 14:21N 58°36' E 016°12'0 0.0
2014-Dec-17 11:28N 58°36' E 016°12'0 0.0
2014-Dec-17 10:28N 58°36' E 016°12'0 0.0
2014-Dec-17 09:30N 58°36' E 016°12'0 0.0
2014-Dec-17 08:24N 58°36' E 016°12'0 0.0
2014-Dec-17 07:30N 58°36' E 016°12'0 0.0
2014-Dec-17 06:18N 58°36' E 016°12'0 0.0
2014-Dec-17 05:20N 58°36' E 016°12'0 0.0
2014-Dec-17 04:20N 58°36' E 016°12'0 0.0
2014-Dec-17 01:19N 58°36' E 016°12'0 0.0
2014-Dec-17 00:21N 58°36' E 016°12'0 0.0
2014-Dec-16 22:29N 58°36' E 016°12'1 1.0
2014-Dec-16 21:33N 58°36' E 016°13'0 0.2
2014-Dec-16 20:28N 58°36' E 016°13'0 0.0
2014-Dec-16 19:28N 58°36' E 016°13'0 0.0
2014-Dec-16 18:33N 58°36' E 016°13'0 0.0
2014-Dec-16 17:03N 58°36' E 016°13'0 0.0
2014-Dec-16 16:29N 58°36' E 016°13'0 0.0
2014-Dec-16 15:29N 58°36' E 016°13'0 0.0
2014-Dec-16 14:25N 58°36' E 016°13'0 0.0
2014-Dec-16 13:26N 58°36' E 016°13'0 0.0
2014-Dec-16 12:14N 58°36' E 016°13'0 0.0
2014-Dec-16 11:21N 58°36' E 016°13'0 0.0
2014-Dec-16 10:15N 58°36' E 016°13'0 0.0
2014-Dec-16 09:33N 58°36' E 016°13'6 5.9
2014-Dec-16 08:33N 58°39' E 016°23'1110.6
2014-Dec-16 07:33N 58°38' E 016°43'  
Track history (hours):
 
Tides and Currents Weather Stations Pressure Air Temp Water Temp Dewpoint Dewpoint Depression Visibility Wind Speed Wind Dir Waves Ship Positions

Flinterbrise

Last reported at 2014-Dec-21 01:33 UTC. Time now 2014-Dec-21 01:55 UTC.
Position N 53°54' E 011°28'.

Length 83 m; draft 3.2 m.

Type: Ship. MMSI: 246044000.

Date/timePositionNaut miles runAvg speedWind from/ knotsBaromVisibWave heightAir tempDewpointWater temp
2014-Dec-21 01:33N 53°54' E 011°28'0 0.0
2014-Dec-21 00:33N 53°54' E 011°28'0 0.0
2014-Dec-20 23:33N 53°54' E 011°28'0 0.0
2014-Dec-20 22:33N 53°54' E 011°28'0 0.0
2014-Dec-20 21:33N 53°54' E 011°28'0 0.0
2014-Dec-20 20:33N 53°54' E 011°28'0 0.0
2014-Dec-20 19:33N 53°54' E 011°28'0 0.0
2014-Dec-20 18:33N 53°54' E 011°28'0 0.0
2014-Dec-20 17:33N 53°54' E 011°28'0 0.0
2014-Dec-20 16:33N 53°54' E 011°28'0 0.0
2014-Dec-20 15:33N 53°54' E 011°28'0 0.0
2014-Dec-20 14:33N 53°54' E 011°28'0 0.0
2014-Dec-20 13:33N 53°54' E 011°28'0 0.0
2014-Dec-20 12:33N 53°54' E 011°28'0 0.0
2014-Dec-20 11:33N 53°54' E 011°28'0 0.0
2014-Dec-20 10:33N 53°54' E 011°28'0 0.0
2014-Dec-20 09:33N 53°54' E 011°28'0 0.0
2014-Dec-20 08:27N 53°54' E 011°28'0 0.0
2014-Dec-20 07:33N 53°54' E 011°28'0 0.0
2014-Dec-20 06:33N 53°54' E 011°28'0 0.0
2014-Dec-20 05:33N 53°54' E 011°28'0 0.0
2014-Dec-20 04:33N 53°54' E 011°28'0 0.0
2014-Dec-20 03:33N 53°54' E 011°28'0 0.0
2014-Dec-20 02:33N 53°54' E 011°28'0 0.0
2014-Dec-20 01:33N 53°54' E 011°28'0 0.0
2014-Dec-20 00:33N 53°54' E 011°28'0 0.0
2014-Dec-19 23:33N 53°54' E 011°28'0 0.0
2014-Dec-19 22:33N 53°54' E 011°28'0 0.0
2014-Dec-19 21:33N 53°54' E 011°28'0 0.0
2014-Dec-19 20:33N 53°54' E 011°28'0 0.0
2014-Dec-19 19:33N 53°54' E 011°28'0 0.0
2014-Dec-19 18:33N 53°54' E 011°28'0 0.0
2014-Dec-19 17:33N 53°54' E 011°28'0 0.0
2014-Dec-19 16:33N 53°54' E 011°28'0 0.0
2014-Dec-19 15:33N 53°54' E 011°28'0 0.0
2014-Dec-19 14:33N 53°54' E 011°28'6 6.4
2014-Dec-19 13:33N 53°59' E 011°20'10 9.7
2014-Dec-19 12:33N 54°07' E 011°28'1111.2
2014-Dec-19 11:33N 54°15' E 011°41'1111.5
2014-Dec-19 10:33N 54°24' E 011°54'1110.7
2014-Dec-19 09:33N 54°29' E 012°10'6510.8
2014-Dec-19 03:29N 55°01' E 013°49'1010.4
2014-Dec-19 02:33N 55°05' E 014°05'1010.0
2014-Dec-19 01:33N 55°13' E 014°16'1010.3
2014-Dec-19 00:33N 55°21' E 014°27'9 9.4
2014-Dec-18 23:33N 55°28' E 014°38'9 9.5
2014-Dec-18 22:34N 55°32' E 014°52'1010.1
2014-Dec-18 21:31N 55°38' E 015°09'187 8.9
2014-Dec-18 00:24N 58°37' E 016°51'1112.6
2014-Dec-17 23:34N 58°39' E 016°31'11 3.3
2014-Dec-17 20:21N 58°36' E 016°12'0 0.0
2014-Dec-17 19:09N 58°36' E 016°12'0 0.0
2014-Dec-17 17:28N 58°36' E 016°12'0 0.0
2014-Dec-17 15:06N 58°36' E 016°12'0 0.0
2014-Dec-17 14:21N 58°36' E 016°12'0 0.0
2014-Dec-17 11:28N 58°36' E 016°12'0 0.0
2014-Dec-17 10:28N 58°36' E 016°12'0 0.0
2014-Dec-17 09:30N 58°36' E 016°12'0 0.0
2014-Dec-17 08:24N 58°36' E 016°12'0 0.0
2014-Dec-17 07:30N 58°36' E 016°12'0 0.0
2014-Dec-17 06:18N 58°36' E 016°12'0 0.0
2014-Dec-17 05:20N 58°36' E 016°12'0 0.0
2014-Dec-17 04:20N 58°36' E 016°12'0 0.0
2014-Dec-17 01:19N 58°36' E 016°12'0 0.0
2014-Dec-17 00:21N 58°36' E 016°12'0 0.0
2014-Dec-16 22:29N 58°36' E 016°12'1 1.0
2014-Dec-16 21:33N 58°36' E 016°13'0 0.2
2014-Dec-16 20:28N 58°36' E 016°13'0 0.0
2014-Dec-16 19:28N 58°36' E 016°13'0 0.0
2014-Dec-16 18:33N 58°36' E 016°13'0 0.0
2014-Dec-16 17:03N 58°36' E 016°13'0 0.0
2014-Dec-16 16:29N 58°36' E 016°13'0 0.0
2014-Dec-16 15:29N 58°36' E 016°13'0 0.0
2014-Dec-16 14:25N 58°36' E 016°13'0 0.0
2014-Dec-16 13:26N 58°36' E 016°13'0 0.0
2014-Dec-16 12:14N 58°36' E 016°13'0 0.0
2014-Dec-16 11:21N 58°36' E 016°13'0 0.0
2014-Dec-16 10:15N 58°36' E 016°13'0 0.0
2014-Dec-16 09:33N 58°36' E 016°13'6 5.9
2014-Dec-16 08:33N 58°39' E 016°23'1110.6
2014-Dec-16 07:33N 58°38' E 016°43'  

Dump ship's entire track history